Elkader, Iowa
Current Conditions -  °F | °C
As of 4:15 AM on Saturday 20 Dec 2014 (Local Time) from KPDC Reporting Station
Overcast Overcast  
Wind Chill: 28°   Ceiling: 2200
Heat Index: 28°   Visibility: 7mi
Dew Point: 24°   Wind: 3mph
Humidity: 83%   Direction: 110°ESE
Pressure: 30.24"   Gusts: NA
Location:  42.85°N, 91.41°W
Report Text: KPDC 201015Z AUTO 11003KT 7SM OVC022 M02/M04 A3024 RMK AO2 T10201045
Loading
Personal Weather Stations






























Interactive Weather Map New forecast layout! Learn more

10-Day Weather Forecast

Advertisements
Track Severe Weather on mobile